Apollo, Pennsylvania
Current Conditions -  °F | °C
As of 1:45 PM on Friday 21 Nov 2014 (Local Time) from KLBE Reporting Station
Broken Clouds Broken Clouds  
Wind Chill: -9°   Ceiling: 4000
Heat Index: -3°   Visibility: 7mi
Dew Point: -13°   Wind: 13mph
Humidity: 47%   Direction: 270°W
Pressure: 30.46"   Gusts: NA
Location:  40.58°N, 79.57°W
Report Text: KLBE 211845Z 27011KT 7SM BKN040 M03/M13 A3046
Loading
Personal Weather Stations






























Interactive Weather Map New forecast layout! Learn more

10-Day Weather Forecast

Advertisements
Track Severe Weather on mobile